Time;durP1;ratioP1;P1;durP2;ratioP2;P2;SDS_P1;SDS_P2;PMS_P1;PMS_P2;Temp;Humidity;BMP_temperature;BMP_pressure;BME280_temperature;BME280_humidity;BME280_pressure;Samples;Min_cycle;Max_cycle;Signal;HPM_P1;HPM_P2
2021/01/13 00:02:09;;;;;;;4.38;0.82;;;1.60;99.90;;;;;;5071305;28;20085;-62
2021/01/13 00:04:35;;;;;;;9.00;0.88;;;1.60;99.90;;;;;;5069540;28;20036;-59
2021/01/13 00:07:01;;;;;;;4.80;1.08;;;1.60;99.90;;;;;;5071417;28;20029;-60
2021/01/13 00:09:26;;;;;;;8.85;1.73;;;1.60;99.90;;;;;;5084660;22;20094;-64
2021/01/13 00:11:56;;;;;;;5.88;0.93;;;1.60;99.90;;;;;;5068679;28;20016;-66
2021/01/13 00:14:28;;;;;;;7.50;0.90;;;1.70;99.90;;;;;;5064846;28;20021;-64
2021/01/13 00:16:53;;;;;;;9.82;1.23;;;1.70;99.90;;;;;;5066825;28;20013;-65
2021/01/13 00:19:20;;;;;;;5.93;0.98;;;1.70;99.90;;;;;;5063721;28;20044;-65
2021/01/13 00:21:49;;;;;;;14.80;1.95;;;1.80;99.90;;;;;;5051040;28;20029;-65
2021/01/13 00:24:15;;;;;;;7.13;0.80;;;1.80;99.90;;;;;;5048056;28;20045;-65
2021/01/13 00:26:41;;;;;;;6.88;0.63;;;1.90;99.90;;;;;;5045342;28;20086;-65
2021/01/13 00:29:07;;;;;;;6.05;0.85;;;2.00;99.90;;;;;;5047891;28;20037;-66
2021/01/13 00:31:32;;;;;;;6.63;1.05;;;2.10;99.90;;;;;;5045609;28;20405;-66
2021/01/13 00:33:58;;;;;;;4.13;0.73;;;2.30;99.90;;;;;;5047381;28;20028;-66
2021/01/13 00:36:25;;;;;;;10.48;1.75;;;2.40;99.90;;;;;;5047929;28;20037;-66
2021/01/13 00:38:51;;;;;;;7.00;0.80;;;2.50;99.90;;;;;;5047423;28;20552;-66
2021/01/13 00:41:17;;;;;;;5.88;0.60;;;2.60;99.90;;;;;;5047479;28;20150;-66
2021/01/13 00:43:43;;;;;;;6.38;1.08;;;2.70;99.90;;;;;;5047913;28;20079;-66
2021/01/13 00:46:09;;;;;;;3.03;0.75;;;2.70;99.90;;;;;;5047081;28;20079;-66
2021/01/13 00:48:34;;;;;;;2.03;0.93;;;2.70;99.90;;;;;;5045590;28;20041;-65
2021/01/13 00:51:00;;;;;;;9.32;0.80;;;2.60;99.90;;;;;;5045909;28;20112;-65
2021/01/13 00:53:26;;;;;;;6.63;1.40;;;2.40;99.90;;;;;;5048669;28;20060;-66
2021/01/13 00:55:51;;;;;;;4.40;0.50;;;2.30;99.90;;;;;;5059085;28;20030;-66
2021/01/13 00:58:17;;;;;;;5.28;0.95;;;2.20;99.90;;;;;;5048659;28;20043;-65
2021/01/13 01:00:42;;;;;;;10.82;0.85;;;2.20;99.90;;;;;;5045742;28;20489;-66
2021/01/13 01:03:08;;;;;;;10.57;1.65;;;2.00;99.90;;;;;;5040106;28;20500;-66
2021/01/13 01:05:33;;;;;;;7.85;0.88;;;2.00;99.90;;;;;;5043235;28;20025;-66
2021/01/13 01:07:59;;;;;;;7.22;0.95;;;2.00;99.90;;;;;;5039870;28;20136;-65
2021/01/13 01:10:32;;;;;;;10.23;0.93;;;1.90;99.90;;;;;;5042288;28;20100;-66
2021/01/13 01:12:58;;;;;;;5.97;1.05;;;1.90;99.90;;;;;;5047459;28;20112;-66
2021/01/13 01:15:24;;;;;;;9.23;1.27;;;1.90;99.90;;;;;;5039670;28;20184;-66
2021/01/13 01:17:50;;;;;;;5.45;1.05;;;1.80;99.90;;;;;;5040767;28;20025;-66
2021/01/13 01:20:16;;;;;;;12.18;1.38;;;1.80;99.90;;;;;;5040625;28;20029;-66
2021/01/13 01:23:01;;;;;;;10.38;1.20;;;1.70;99.90;;;;;;5039747;28;20033;-66
2021/01/13 01:25:29;;;;;;;6.80;1.27;;;1.70;99.90;;;;;;5042891;28;20036;-66
2021/01/13 01:28:00;;;;;;;5.95;0.55;;;1.60;99.90;;;;;;5039970;28;20088;-65
2021/01/13 01:30:28;;;;;;;20.48;1.80;;;1.60;99.90;;;;;;5042449;28;20426;-66
2021/01/13 01:32:55;;;;;;;7.13;0.60;;;1.60;99.90;;;;;;5040090;28;20108;-63
2021/01/13 01:35:21;;;;;;;9.85;1.02;;;1.60;99.90;;;;;;5041832;28;20039;-65
2021/01/13 01:37:46;;;;;;;8.30;0.77;;;1.50;99.90;;;;;;5040904;28;20035;-65
2021/01/13 01:40:14;;;;;;;4.60;0.43;;;1.50;99.90;;;;;;5039905;28;20124;-66
2021/01/13 01:42:48;;;;;;;2.78;0.43;;;1.50;99.90;;;;;;5041472;28;20029;-66
2021/01/13 01:45:17;;;;;;;5.65;1.23;;;1.50;99.90;;;;;;5040556;28;20029;-66
2021/01/13 01:48:07;;;;;;;6.13;0.60;;;1.60;99.90;;;;;;5040695;28;20036;-66
2021/01/13 01:50:37;;;;;;;9.25;1.63;;;1.70;99.90;;;;;;5042916;28;20045;-64
2021/01/13 01:53:41;;;;;;;6.78;0.70;;;1.80;99.90;;;;;;5039614;28;20438;-64
2021/01/13 01:56:25;;;;;;;11.88;1.83;;;2.00;99.90;;;;;;5025675;28;20037;-65
2021/01/13 01:59:13;;;;;;;6.80;0.68;;;2.00;99.90;;;;;;5041249;28;20032;-65
2021/01/13 02:01:42;;;;;;;7.43;0.50;;;2.10;99.90;;;;;;5063534;28;20112;-66
2021/01/13 02:04:30;;;;;;;8.90;0.85;;;2.10;99.90;;;;;;5041422;28;20056;-66
2021/01/13 02:06:58;;;;;;;4.30;0.90;;;2.20;99.90;;;;;;5057656;28;20025;-65
2021/01/13 02:09:28;;;;;;;4.63;0.50;;;2.10;99.90;;;;;;5042525;28;20041;-65
2021/01/13 02:11:56;;;;;;;7.47;1.08;;;2.20;99.90;;;;;;5040326;28;20114;-66
2021/01/13 02:14:23;;;;;;;5.85;0.52;;;2.20;99.90;;;;;;5039034;28;20029;-67
2021/01/13 02:16:56;;;;;;;3.92;0.40;;;2.20;99.90;;;;;;5039588;28;20045;-65
2021/01/13 02:19:33;;;;;;;5.55;0.50;;;2.20;99.90;;;;;;5039175;28;20112;-66
2021/01/13 02:22:03;;;;;;;2.70;0.55;;;2.20;99.90;;;;;;5041963;28;20412;-64
2021/01/13 02:25:06;;;;;;;5.17;1.07;;;2.20;99.90;;;;;;5038711;28;20056;-65
2021/01/13 02:28:02;;;;;;;4.07;0.70;;;2.20;99.90;;;;;;5042743;28;20048;-66
2021/01/13 02:30:35;;;;;;;2.95;1.02;;;2.20;99.90;;;;;;5061648;28;20041;-65
2021/01/13 02:33:09;;;;;;;7.28;1.63;;;2.20;99.90;;;;;;5041756;28;20115;-65
2021/01/13 02:36:06;;;;;;;4.80;0.30;;;2.20;99.90;;;;;;5056076;28;20033;-65
2021/01/13 02:38:34;;;;;;;9.85;0.70;;;2.30;99.90;;;;;;5041978;28;20062;-66
2021/01/13 02:40:59;;;;;;;2.67;0.40;;;2.40;99.90;;;;;;5037092;28;20036;-65
2021/01/13 02:43:29;;;;;;;1.88;0.20;;;2.50;99.90;;;;;;5041350;28;20037;-65
2021/01/13 02:45:59;;;;;;;3.97;0.47;;;2.50;99.90;;;;;;5057617;28;20540;-66
2021/01/13 02:48:28;;;;;;;10.13;1.02;;;2.60;99.90;;;;;;5061256;28;20033;-66
2021/01/13 02:50:56;;;;;;;5.82;0.80;;;2.70;99.90;;;;;;5040637;28;20033;-65
2021/01/13 02:53:42;;;;;;;8.88;1.27;;;2.70;99.90;;;;;;5060842;28;20079;-65
2021/01/13 02:56:16;;;;;;;4.93;0.60;;;2.80;99.90;;;;;;5040811;28;20036;-66
2021/01/13 02:58:45;;;;;;;5.65;0.60;;;2.80;99.90;;;;;;5040219;28;20041;-66
2021/01/13 03:01:10;;;;;;;2.33;0.68;;;2.80;99.90;;;;;;5039248;28;20114;-64
2021/01/13 03:03:37;;;;;;;2.97;0.63;;;2.80;99.90;;;;;;5039361;28;20101;-66
2021/01/13 03:06:08;;;;;;;5.43;0.60;;;2.80;99.90;;;;;;5040676;28;20112;-66
2021/01/13 03:08:55;;;;;;;3.80;0.80;;;2.80;99.90;;;;;;5037393;28;20037;-66
2021/01/13 03:11:22;;;;;;;4.95;0.77;;;2.80;99.90;;;;;;5040819;28;20026;-67
2021/01/13 03:13:48;;;;;;;9.77;0.93;;;2.80;99.90;;;;;;5037154;28;20057;-65
2021/01/13 03:16:15;;;;;;;7.05;0.68;;;2.80;99.90;;;;;;5039797;28;20033;-66
2021/01/13 03:19:05;;;;;;;4.75;0.70;;;2.70;99.90;;;;;;5041458;28;20091;-66
2021/01/13 03:21:51;;;;;;;5.97;0.73;;;2.80;99.90;;;;;;5045622;28;20031;-65
2021/01/13 03:24:31;;;;;;;4.35;1.17;;;2.80;99.90;;;;;;5044915;28;20033;-65
2021/01/13 03:26:59;;;;;;;2.88;0.40;;;2.90;99.90;;;;;;5044848;28;20030;-66
2021/01/13 03:29:25;;;;;;;7.05;1.00;;;3.00;99.90;;;;;;5044975;28;20043;-65
2021/01/13 03:32:13;;;;;;;8.80;1.63;;;3.00;99.90;;;;;;5039993;28;20037;-66
2021/01/13 03:35:06;;;;;;;11.70;0.93;;;3.10;99.90;;;;;;5045212;28;20032;-65
2021/01/13 03:37:50;;;;;;;13.70;1.95;;;3.20;99.90;;;;;;5049738;28;20512;-66
2021/01/13 03:40:20;;;;;;;12.50;0.80;;;3.20;99.90;;;;;;5044731;28;20473;-66
2021/01/13 03:42:52;;;;;;;7.75;1.67;;;3.40;99.90;;;;;;5043186;28;20032;-65
2021/01/13 03:45:34;;;;;;;8.48;0.68;;;3.40;99.90;;;;;;5045360;28;20112;-66
2021/01/13 03:48:12;;;;;;;6.10;1.30;;;3.40;99.90;;;;;;5045062;28;20035;-66
2021/01/13 03:50:44;;;;;;;7.25;1.40;;;3.40;99.90;;;;;;5042242;28;20510;-66
2021/01/13 03:53:11;;;;;;;9.30;1.15;;;3.40;99.90;;;;;;5042208;28;20090;-66
2021/01/13 03:55:39;;;;;;;3.28;0.43;;;3.40;99.90;;;;;;5043576;28;20026;-66
2021/01/13 03:58:26;;;;;;;12.18;1.10;;;3.40;99.90;;;;;;5042642;28;20025;-66
2021/01/13 04:01:03;;;;;;;6.80;0.60;;;3.40;99.90;;;;;;5045361;28;20033;-66
2021/01/13 04:03:49;;;;;;;2.88;0.60;;;3.40;99.90;;;;;;5065195;28;20033;-66
2021/01/13 04:06:15;;;;;;;19.95;2.40;;;3.50;99.90;;;;;;5044364;28;20495;-66
2021/01/13 04:08:45;;;;;;;4.95;0.60;;;3.40;99.90;;;;;;5041725;28;20029;-66
2021/01/13 04:11:22;;;;;;;7.35;0.85;;;3.40;99.90;;;;;;5043590;28;20548;-66
2021/01/13 04:13:53;;;;;;;14.38;2.28;;;3.30;99.90;;;;;;5044794;28;20041;-66
2021/01/13 04:16:23;;;;;;;7.50;0.60;;;3.30;99.90;;;;;;5045369;28;20113;-66
2021/01/13 04:18:51;;;;;;;12.80;2.10;;;3.30;99.90;;;;;;5044981;28;20444;-65
2021/01/13 04:21:18;;;;;;;10.43;0.75;;;3.30;99.90;;;;;;5043852;28;20036;-66
2021/01/13 04:23:44;;;;;;;10.25;1.13;;;3.20;99.90;;;;;;5041340;28;20084;-66
2021/01/13 04:26:12;;;;;;;9.82;1.23;;;3.20;99.90;;;;;;5043120;28;20520;-65
2021/01/13 04:28:38;;;;;;;6.30;1.48;;;3.20;99.90;;;;;;5041634;28;20029;-66
2021/01/13 04:31:05;;;;;;;9.35;2.25;;;3.10;99.90;;;;;;5041048;28;20038;-65
2021/01/13 04:33:31;;;;;;;9.38;1.52;;;3.10;99.90;;;;;;5043753;28;20037;-66
2021/01/13 04:35:57;;;;;;;12.20;1.90;;;3.10;99.90;;;;;;5043290;28;20506;-66
2021/01/13 04:38:25;;;;;;;5.28;1.23;;;3.00;99.90;;;;;;5040436;28;20033;-66
2021/01/13 04:41:09;;;;;;;7.35;1.13;;;3.00;99.90;;;;;;5044109;28;20435;-66
2021/01/13 04:43:56;;;;;;;20.73;2.30;;;3.10;99.90;;;;;;5042053;28;20038;-66
2021/01/13 04:46:39;;;;;;;9.98;1.00;;;3.00;99.90;;;;;;5044373;28;20067;-66
2021/01/13 04:49:15;;;;;;;9.90;0.90;;;3.00;99.90;;;;;;5042291;28;20034;-66
2021/01/13 04:51:42;;;;;;;8.02;1.98;;;3.00;99.90;;;;;;5040792;28;20121;-66
2021/01/13 04:54:16;;;;;;;4.75;0.80;;;3.00;99.90;;;;;;5042603;28;20517;-64
2021/01/13 04:56:45;;;;;;;5.40;0.68;;;3.00;99.90;;;;;;5040407;28;20124;-65
2021/01/13 04:59:38;;;;;;;10.07;0.85;;;3.00;99.90;;;;;;5042816;28;20111;-66
2021/01/13 05:02:11;;;;;;;7.60;0.75;;;3.00;99.90;;;;;;5044727;28;20095;-65
2021/01/13 05:04:43;;;;;;;9.07;0.90;;;3.00;99.90;;;;;;5040800;28;20489;-65
2021/01/13 05:07:19;;;;;;;9.00;1.23;;;2.90;99.90;;;;;;5042521;28;20073;-67
2021/01/13 05:09:54;;;;;;;7.72;1.30;;;2.90;99.90;;;;;;5042970;28;20040;-69
2021/01/13 05:12:26;;;;;;;6.78;1.48;;;2.90;99.90;;;;;;5044013;28;20144;-65
2021/01/13 05:14:59;;;;;;;9.52;1.02;;;2.90;99.90;;;;;;5039744;28;20030;-65
2021/01/13 05:17:35;;;;;;;7.13;1.20;;;2.90;99.90;;;;;;5042105;28;20382;-66
2021/01/13 05:20:06;;;;;;;14.20;1.10;;;2.90;99.90;;;;;;5039589;28;20489;-65
2021/01/13 05:22:34;;;;;;;13.63;1.33;;;2.90;99.90;;;;;;5056180;28;20043;-66
2021/01/13 05:25:08;;;;;;;15.38;2.42;;;2.90;99.90;;;;;;5039430;28;20037;-66
2021/01/13 05:27:45;;;;;;;16.92;1.25;;;2.90;99.90;;;;;;5040808;28;20041;-65
2021/01/13 05:30:12;;;;;;;13.50;1.80;;;2.90;99.90;;;;;;5041906;28;20406;-64
2021/01/13 05:32:42;;;;;;;16.80;1.73;;;2.90;99.90;;;;;;5047063;28;20087;-66
2021/01/13 05:35:09;;;;;;;7.10;1.20;;;2.90;99.90;;;;;;5042897;28;20041;-66
2021/01/13 05:37:48;;;;;;;16.67;1.23;;;3.00;99.90;;;;;;5049668;28;20088;-66
2021/01/13 05:40:17;;;;;;;16.52;2.03;;;3.10;99.90;;;;;;5048189;28;20060;-65
2021/01/13 05:42:44;;;;;;;11.10;0.85;;;3.10;99.90;;;;;;5047176;28;20038;-65
2021/01/13 05:45:12;;;;;;;8.82;1.70;;;3.10;99.90;;;;;;5040280;28;20036;-66
2021/01/13 05:47:53;;;;;;;10.80;1.80;;;3.10;99.90;;;;;;5035093;28;20029;-66
2021/01/13 05:50:24;;;;;;;7.80;0.68;;;3.10;99.90;;;;;;5046939;28;20039;-65
2021/01/13 05:52:52;;;;;;;6.70;1.08;;;3.00;99.90;;;;;;5048945;28;20036;-65
2021/01/13 05:55:19;;;;;;;12.02;1.80;;;3.00;99.90;;;;;;5045333;28;20484;-64
2021/01/13 05:57:55;;;;;;;8.90;1.88;;;3.10;99.90;;;;;;5048179;28;20025;-65
2021/01/13 06:00:25;;;;;;;9.07;0.50;;;3.00;99.90;;;;;;5039776;28;20051;-65
2021/01/13 06:02:57;;;;;;;13.32;0.93;;;3.10;99.90;;;;;;5039161;28;20116;-65
2021/01/13 06:05:24;;;;;;;5.30;1.23;;;3.10;99.90;;;;;;5040674;28;20151;-65
2021/01/13 06:07:52;;;;;;;7.63;0.98;;;3.10;99.90;;;;;;5038692;28;20064;-66
2021/01/13 06:10:18;;;;;;;3.22;0.88;;;3.10;99.90;;;;;;5038196;28;20037;-65
2021/01/13 06:12:47;;;;;;;3.42;1.17;;;3.10;99.90;;;;;;5041929;28;20040;-64
2021/01/13 06:15:13;;;;;;;6.10;0.90;;;3.10;99.90;;;;;;5041279;28;20501;-64
2021/01/13 06:17:50;;;;;;;9.05;0.60;;;3.10;99.90;;;;;;5038208;28;20034;-64
2021/01/13 06:20:34;;;;;;;4.85;1.00;;;3.10;99.90;;;;;;5036270;28;20040;-64
2021/01/13 06:23:00;;;;;;;6.05;0.65;;;3.10;99.90;;;;;;5041615;28;20033;-65
2021/01/13 06:25:28;;;;;;;6.15;0.90;;;3.00;99.90;;;;;;5054318;28;20510;-65
2021/01/13 06:28:24;;;;;;;5.18;1.08;;;3.10;99.90;;;;;;5038140;28;20033;-63
2021/01/13 06:31:14;;;;;;;5.40;1.08;;;3.10;99.90;;;;;;5042125;28;19917;-65
2021/01/13 06:34:07;;;;;;;7.05;0.93;;;3.10;99.90;;;;;;5037344;28;20032;-65
2021/01/13 06:36:57;;;;;;;9.15;0.75;;;3.10;99.90;;;;;;5039953;28;20091;-65
2021/01/13 06:39:25;;;;;;;6.80;1.23;;;3.10;99.90;;;;;;5041480;28;20033;-65
2021/01/13 06:41:51;;;;;;;6.28;0.82;;;3.00;99.90;;;;;;5037349;28;20045;-64
2021/01/13 06:44:17;;;;;;;4.50;1.00;;;3.00;99.90;;;;;;5037662;28;20450;-65
2021/01/13 06:46:43;;;;;;;3.40;0.70;;;3.00;99.90;;;;;;5040757;28;20021;-64
2021/01/13 06:49:22;;;;;;;13.32;1.25;;;3.00;99.90;;;;;;5040492;28;20109;-64
2021/01/13 06:51:49;;;;;;;6.82;0.60;;;3.00;99.90;;;;;;5061415;28;20095;-65
2021/01/13 06:54:16;;;;;;;4.15;1.05;;;2.90;99.90;;;;;;5036829;28;20044;-64
2021/01/13 06:56:52;;;;;;;7.07;1.02;;;2.90;99.90;;;;;;5040743;28;20032;-65
2021/01/13 06:59:19;;;;;;;4.25;0.88;;;2.90;99.90;;;;;;5041780;28;20394;-66
2021/01/13 07:01:53;;;;;;;2.92;0.75;;;2.90;99.90;;;;;;5037222;28;20030;-64
2021/01/13 07:04:19;;;;;;;13.00;1.25;;;2.80;99.90;;;;;;5038479;28;20138;-66
2021/01/13 07:07:07;;;;;;;4.72;0.40;;;2.80;99.90;;;;;;5040135;28;20033;-64
2021/01/13 07:09:37;;;;;;;7.97;1.58;;;2.80;99.90;;;;;;5040107;28;20041;-64
2021/01/13 07:12:10;;;;;;;8.07;1.23;;;2.70;99.90;;;;;;5040188;28;20036;-64
2021/01/13 07:14:47;;;;;;;5.65;0.75;;;2.70;99.90;;;;;;5041161;28;20632;-63
2021/01/13 07:17:18;;;;;;;5.43;0.68;;;2.70;99.90;;;;;;5037217;28;20052;-64
2021/01/13 07:19:51;;;;;;;14.23;1.55;;;2.70;99.90;;;;;;5042703;28;20063;-64
2021/01/13 07:22:18;;;;;;;8.48;0.65;;;2.70;99.90;;;;;;5043469;28;20386;-64
2021/01/13 07:24:45;;;;;;;6.60;2.00;;;2.70;99.90;;;;;;5041198;28;20045;-65
2021/01/13 07:27:12;;;;;;;19.38;1.70;;;2.70;99.90;;;;;;5043655;28;20045;-63
2021/01/13 07:29:39;;;;;;;10.57;1.05;;;2.70;99.90;;;;;;5043944;28;20041;-63
2021/01/13 07:32:05;;;;;;;5.07;0.50;;;2.70;99.90;;;;;;5042594;28;20532;-64
2021/01/13 07:34:42;;;;;;;4.05;0.32;;;2.70;99.90;;;;;;5041097;28;20622;-64
2021/01/13 07:37:19;;;;;;;7.47;0.60;;;2.70;99.90;;;;;;5036291;28;20064;-63
2021/01/13 07:40:14;;;;;;;2.50;0.98;;;2.70;99.90;;;;;;5041453;28;20120;-63
2021/01/13 07:42:41;;;;;;;3.72;0.60;;;2.70;99.90;;;;;;5043163;28;20512;-63
2021/01/13 07:45:20;;;;;;;7.75;0.90;;;2.70;99.90;;;;;;5037500;28;20029;-64
2021/01/13 07:48:13;;;;;;;6.22;0.63;;;2.70;99.90;;;;;;5040995;28;20063;-64
2021/01/13 07:50:44;;;;;;;9.23;1.98;;;2.80;99.90;;;;;;5036646;28;20064;-65
2021/01/13 07:53:21;;;;;;;5.47;1.00;;;2.80;99.90;;;;;;5037139;28;20029;-64
2021/01/13 07:55:56;;;;;;;4.63;0.70;;;2.80;99.90;;;;;;5043014;28;20021;-65
2021/01/13 07:58:32;;;;;;;10.10;1.40;;;2.80;99.90;;;;;;5042138;28;20038;-63
2021/01/13 08:00:59;;;;;;;1.95;0.95;;;2.80;99.90;;;;;;5042881;28;20037;-65
2021/01/13 08:04:01;;;;;;;8.35;1.25;;;2.90;99.90;;;;;;5046559;28;20664;-63
2021/01/13 08:06:32;;;;;;;4.32;0.60;;;2.90;99.90;;;;;;5044430;28;20036;-65
2021/01/13 08:09:00;;;;;;;;;;;2.90;99.90;;;;;;5046523;28;20136;-64
2021/01/13 08:11:41;;;;;;;8.82;1.50;;;3.00;99.90;;;;;;5046331;28;19916;-63
2021/01/13 08:14:27;;;;;;;5.93;2.42;;;3.00;99.90;;;;;;5038881;28;20030;-64
2021/01/13 08:16:59;;;;;;;8.77;0.80;;;3.10;99.90;;;;;;5011021;28;20501;-65
2021/01/13 08:20:21;;;;;;;7.00;0.63;;;3.10;99.90;;;;;;5039577;28;21017;-63
2021/01/13 08:23:07;;;;;;;9.60;1.92;;;3.10;99.90;;;;;;5044644;28;20033;-64
2021/01/13 08:25:36;;;;;;;6.38;0.80;;;3.20;99.90;;;;;;5043090;28;20035;-63
2021/01/13 08:28:03;;;;;;;10.80;1.40;;;3.20;99.90;;;;;;5043866;28;20525;-65
2021/01/13 08:30:30;;;;;;;5.10;0.90;;;3.20;99.90;;;;;;5048890;28;20049;-64
2021/01/13 08:32:57;;;;;;;8.27;0.82;;;3.30;99.90;;;;;;5049578;28;20021;-63
2021/01/13 08:35:34;;;;;;;11.88;1.67;;;3.30;99.90;;;;;;5048989;28;20512;-65
2021/01/13 08:38:10;;;;;;;6.97;0.60;;;3.30;99.90;;;;;;5044184;28;20029;-63
2021/01/13 08:40:39;;;;;;;5.55;0.70;;;3.40;99.90;;;;;;5039589;28;20025;-68
2021/01/13 08:43:06;;;;;;;10.45;0.93;;;3.40;99.90;;;;;;5049698;28;20035;-65
2021/01/13 08:45:38;;;;;;;5.93;0.82;;;3.50;99.90;;;;;;5049354;28;20032;-64
2021/01/13 08:48:12;;;;;;;3.10;0.60;;;3.50;99.90;;;;;;5049866;28;20025;-65
2021/01/13 08:50:39;;;;;;;7.13;1.42;;;3.60;99.90;;;;;;5040121;28;20029;-65
2021/01/13 08:53:05;;;;;;;6.70;0.90;;;3.70;99.90;;;;;;5040883;28;20062;-64
2021/01/13 08:55:32;;;;;;;8.70;0.75;;;3.70;99.90;;;;;;5042821;28;20028;-64
2021/01/13 08:58:05;;;;;;;5.90;0.70;;;3.80;99.90;;;;;;5044425;28;20026;-64
2021/01/13 09:00:32;;;;;;;13.07;1.98;;;3.80;99.90;;;;;;5042546;28;20024;-66
2021/01/13 09:03:05;;;;;;;9.93;1.08;;;3.80;99.90;;;;;;5044900;28;20482;-63
2021/01/13 09:05:36;;;;;;;3.03;0.52;;;3.80;99.90;;;;;;5042850;28;20032;-64
2021/01/13 09:08:04;;;;;;;11.85;1.08;;;3.90;99.90;;;;;;5044427;28;20080;-65
2021/01/13 09:10:46;;;;;;;9.18;1.63;;;3.90;99.90;;;;;;5041895;28;20091;-64
2021/01/13 09:13:38;;;;;;;4.90;0.95;;;3.90;99.90;;;;;;5040580;28;20026;-64
2021/01/13 09:16:22;;;;;;;3.00;0.70;;;4.00;99.90;;;;;;5041187;28;20405;-63
2021/01/13 09:18:54;;;;;;;9.18;1.95;;;4.10;99.90;;;;;;5039602;28;20041;-64
2021/01/13 09:21:30;;;;;;;8.73;0.80;;;4.20;99.90;;;;;;5045047;28;20036;-64
2021/01/13 09:23:57;;;;;;;10.13;1.33;;;4.20;99.90;;;;;;5044540;28;20091;-63
2021/01/13 09:26:38;;;;;;;9.32;1.33;;;4.30;99.90;;;;;;5042368;28;20025;-66
2021/01/13 09:29:10;;;;;;;5.20;0.90;;;4.30;99.90;;;;;;5040016;28;20033;-64
2021/01/13 09:31:38;;;;;;;6.30;0.70;;;4.30;99.90;;;;;;5045419;28;20447;-64
2021/01/13 09:34:05;;;;;;;5.68;1.23;;;4.40;99.90;;;;;;5044211;28;20739;-65
2021/01/13 09:36:57;;;;;;;15.13;3.17;;;4.40;99.90;;;;;;5041638;28;20022;-64
2021/01/13 09:39:34;;;;;;;7.75;0.80;;;4.40;99.90;;;;;;5041579;28;20120;-63
2021/01/13 09:42:01;;;;;;;9.98;1.05;;;4.40;99.90;;;;;;5044672;28;20037;-66
2021/01/13 09:44:30;;;;;;;9.52;2.05;;;4.40;99.90;;;;;;5039846;28;20036;-65
2021/01/13 09:46:56;;;;;;;12.00;2.05;;;4.50;99.90;;;;;;5044756;28;20032;-64
2021/01/13 09:49:22;;;;;;;12.88;1.85;;;4.40;99.90;;;;;;5044268;28;20485;-64
2021/01/13 09:51:48;;;;;;;11.63;1.42;;;4.40;99.90;;;;;;5042840;28;20025;-64
2021/01/13 09:54:14;;;;;;;9.80;1.55;;;4.40;99.90;;;;;;5043570;28;20040;-63
2021/01/13 09:56:40;;;;;;;8.82;2.08;;;4.40;99.90;;;;;;5040336;28;20034;-64
2021/01/13 09:59:07;;;;;;;9.77;1.02;;;4.50;99.90;;;;;;5043888;28;20404;-64
2021/01/13 10:01:36;;;;;;;6.00;0.75;;;4.50;99.90;;;;;;5044391;28;20116;-63
2021/01/13 10:04:09;;;;;;;7.72;0.80;;;4.60;99.90;;;;;;5040516;28;20033;-64
2021/01/13 10:06:39;;;;;;;3.95;1.20;;;4.70;99.90;;;;;;5045220;28;20444;-64
2021/01/13 10:09:13;;;;;;;13.02;0.90;;;4.80;99.90;;;;;;5048227;28;20041;-64
2021/01/13 10:11:39;;;;;;;6.18;1.10;;;4.90;99.90;;;;;;5046232;28;20039;-64
2021/01/13 10:14:06;;;;;;;5.00;1.25;;;5.00;99.90;;;;;;5041118;28;20517;-64
2021/01/13 10:16:38;;;;;;;9.00;1.55;;;5.10;99.90;;;;;;5042286;28;20033;-64
2021/01/13 10:19:04;;;;;;;10.20;1.00;;;5.20;99.90;;;;;;5039649;28;20029;-66
2021/01/13 10:21:44;;;;;;;5.00;0.73;;;5.20;99.90;;;;;;5044518;28;20086;-65
2021/01/13 10:24:14;;;;;;;8.77;1.60;;;5.20;99.90;;;;;;5047073;28;20037;-64
2021/01/13 10:26:48;;;;;;;4.40;0.60;;;5.30;99.90;;;;;;5048230;28;20907;-64
2021/01/13 10:29:22;;;;;;;8.43;1.50;;;5.30;99.90;;;;;;5049005;28;20065;-65
2021/01/13 10:31:48;;;;;;;5.30;0.60;;;5.40;99.90;;;;;;5046107;28;20025;-64
2021/01/13 10:34:14;;;;;;;5.88;1.15;;;5.40;99.90;;;;;;5048355;28;20033;-63
2021/01/13 10:36:49;;;;;;;7.00;0.70;;;5.40;99.90;;;;;;5048392;28;20040;-64
2021/01/13 10:39:23;;;;;;;2.00;0.50;;;5.30;99.90;;;;;;5048736;28;20037;-64
2021/01/13 10:41:51;;;;;;;9.88;1.15;;;5.40;99.90;;;;;;5045369;28;20037;-65
2021/01/13 10:44:20;;;;;;;5.15;0.68;;;5.40;99.90;;;;;;5048851;28;20045;-63
2021/01/13 10:46:53;;;;;;;11.73;1.13;;;5.60;99.90;;;;;;5048536;28;20029;-64
2021/01/13 10:49:26;;;;;;;6.82;0.70;;;5.60;99.90;;;;;;5048663;28;20087;-64
2021/01/13 10:51:54;;;;;;;5.85;0.77;;;5.80;99.90;;;;;;5045672;28;20503;-65
2021/01/13 10:54:22;;;;;;;5.45;0.93;;;6.00;99.90;;;;;;5048543;28;20040;-65
2021/01/13 10:56:53;;;;;;;8.50;1.48;;;6.10;99.90;;;;;;5047618;28;20029;-65
2021/01/13 10:59:19;;;;;;;5.00;0.60;;;6.40;99.90;;;;;;5048459;28;20060;-62
2021/01/13 11:01:46;;;;;;;4.35;0.60;;;6.60;99.90;;;;;;5048085;28;20493;-63
2021/01/13 11:04:27;;;;;;;11.70;0.88;;;6.80;99.90;;;;;;5047911;28;20071;-63
2021/01/13 11:06:58;;;;;;;6.53;0.57;;;6.90;99.90;;;;;;5047904;28;20398;-64
2021/01/13 11:09:25;;;;;;;7.35;1.15;;;7.00;99.90;;;;;;5047890;28;20579;-63
2021/01/13 11:11:51;;;;;;;6.90;1.13;;;7.10;99.90;;;;;;5047940;28;20052;-65
2021/01/13 11:14:35;;;;;;;4.85;0.75;;;7.20;99.90;;;;;;5047720;28;20166;-66
2021/01/13 11:17:11;;;;;;;7.85;0.60;;;7.50;99.90;;;;;;5048147;28;20103;-65
2021/01/13 11:19:41;;;;;;;2.83;0.45;;;7.50;99.90;;;;;;5047861;28;20083;-63
2021/01/13 11:22:07;;;;;;;;;;;7.40;99.90;;;;;;5047364;28;20108;-65
2021/01/13 11:24:34;;;;;;;3.50;0.80;;;7.50;99.90;;;;;;5048900;28;19963;-63
2021/01/13 11:27:12;;;;;;;3.22;0.80;;;7.50;99.90;;;;;;5041064;28;20668;-64
2021/01/13 11:29:40;;;;;;;6.80;1.00;;;7.60;99.90;;;;;;5044896;28;20482;-65
2021/01/13 11:32:07;;;;;;;5.10;0.57;;;7.70;99.90;;;;;;5046752;28;20030;-63
2021/01/13 11:34:34;;;;;;;6.45;1.20;;;7.70;99.90;;;;;;5042761;28;20405;-64
2021/01/13 11:37:21;;;;;;;6.47;0.70;;;7.70;99.90;;;;;;5040544;28;20033;-64
2021/01/13 11:40:00;;;;;;;3.20;1.02;;;7.50;99.30;;;;;;5044837;28;20033;-63
2021/01/13 11:43:03;;;;;;;7.38;0.93;;;7.40;98.80;;;;;;5043751;28;20064;-64
2021/01/13 11:45:45;;;;;;;1.40;0.25;;;7.20;99.90;;;;;;5044896;28;20048;-63
2021/01/13 11:48:20;;;;;;;2.90;0.52;;;7.00;99.90;;;;;;5044386;28;20091;-63
2021/01/13 11:50:57;;;;;;;4.10;0.85;;;6.90;99.90;;;;;;5044204;28;20055;-63
2021/01/13 11:53:28;;;;;;;11.23;0.88;;;6.80;99.90;;;;;;5042495;28;20485;-65
2021/01/13 11:55:55;;;;;;;6.78;0.85;;;6.60;99.90;;;;;;5040572;28;20446;-63
2021/01/13 11:58:21;;;;;;;6.10;0.63;;;6.50;99.90;;;;;;5044233;28;20116;-65
2021/01/13 12:00:47;;;;;;;3.97;0.85;;;6.30;99.90;;;;;;5048314;28;20112;-63
2021/01/13 12:03:19;;;;;;;11.23;1.05;;;6.30;99.90;;;;;;5047605;28;20057;-64
2021/01/13 12:05:45;;;;;;;5.60;0.60;;;6.20;99.90;;;;;;5046465;28;20049;-64
2021/01/13 12:08:15;;;;;;;7.40;0.93;;;6.20;99.90;;;;;;5045497;28;20079;-63
2021/01/13 12:10:53;;;;;;;12.50;0.88;;;6.20;99.90;;;;;;5069084;22;20047;-61
2021/01/13 12:13:24;;;;;;;3.58;1.13;;;6.40;99.90;;;;;;5061315;28;20099;-60
2021/01/13 12:15:58;;;;;;;10.27;0.85;;;6.40;99.90;;;;;;5062436;28;20054;-62
2021/01/13 12:18:29;;;;;;;4.57;1.10;;;6.50;99.90;;;;;;5065600;28;20040;-61
2021/01/13 12:20:59;;;;;;;;;;;6.60;99.90;;;;;;5057950;28;20065;-62
2021/01/13 12:23:31;;;;;;;6.35;1.33;;;6.60;99.90;;;;;;5044182;28;19920;-61
2021/01/13 12:26:33;;;;;;;6.30;1.23;;;6.60;99.90;;;;;;5045897;28;20037;-59
2021/01/13 12:29:21;;;;;;;5.80;0.70;;;6.60;99.90;;;;;;5042949;28;20567;-60
2021/01/13 12:31:49;;;;;;;5.55;1.88;;;6.60;99.90;;;;;;5040937;28;20022;-61
2021/01/13 12:34:24;;;;;;;4.35;0.80;;;6.70;99.90;;;;;;5047765;28;20033;-61
2021/01/13 12:37:04;;;;;;;8.25;1.42;;;6.70;99.90;;;;;;5040885;28;20045;-59
2021/01/13 12:39:32;;;;;;;4.38;0.50;;;6.70;99.90;;;;;;5042917;28;20162;-63
2021/01/13 12:41:59;;;;;;;13.00;0.93;;;6.70;99.90;;;;;;5041602;28;20132;-60
2021/01/13 12:44:25;;;;;;;3.80;0.93;;;6.70;99.90;;;;;;5041052;28;20501;-61
2021/01/13 12:46:53;;;;;;;4.90;0.60;;;6.80;99.90;;;;;;5044752;28;20040;-62
2021/01/13 12:49:20;;;;;;;14.75;1.90;;;6.90;99.90;;;;;;5046705;28;20528;-61
2021/01/13 12:51:52;;;;;;;7.15;0.75;;;7.00;99.90;;;;;;5040597;28;20033;-59
2021/01/13 12:54:18;;;;;;;2.75;0.60;;;7.00;99.90;;;;;;5044731;28;20094;-60
2021/01/13 12:56:44;;;;;;;10.05;1.65;;;6.90;99.90;;;;;;5043419;28;20029;-59
2021/01/13 12:59:09;;;;;;;4.75;0.68;;;6.90;99.10;;;;;;5046808;28;20084;-61
2021/01/13 13:01:53;;;;;;;4.13;1.13;;;6.80;99.90;;;;;;5040588;28;20552;-59
2021/01/13 13:04:18;;;;;;;6.07;0.80;;;6.80;99.80;;;;;;5045148;28;20413;-60
2021/01/13 13:06:44;;;;;;;5.75;1.05;;;6.70;99.30;;;;;;5039769;28;20033;-59
2021/01/13 13:09:12;;;;;;;8.07;1.08;;;6.60;99.50;;;;;;5043111;28;20037;-59
2021/01/13 13:11:38;;;;;;;10.05;2.30;;;6.50;99.90;;;;;;5045358;28;20552;-60
2021/01/13 13:14:08;;;;;;;6.57;0.85;;;6.50;99.90;;;;;;5041945;28;20834;-59
2021/01/13 13:16:34;;;;;;;11.55;1.27;;;6.50;99.90;;;;;;5042769;28;20108;-60
2021/01/13 13:18:59;;;;;;;9.10;1.85;;;6.50;99.90;;;;;;5044710;28;20033;-61
2021/01/13 13:21:25;;;;;;;5.18;1.80;;;6.30;99.90;;;;;;5043134;28;20641;-61
2021/01/13 13:23:51;;;;;;;3.88;0.80;;;6.40;99.90;;;;;;5042115;28;20428;-59